createdAt,value
2022-10-19T00:00:11.023Z,101497.13
2022-10-19T00:03:18.286Z,101496.59
2022-10-19T00:06:33.227Z,101493.91
2022-10-19T00:09:37.301Z,101488.19
2022-10-19T00:12:41.169Z,101487.66
2022-10-19T00:15:45.246Z,101487.38
2022-10-19T00:18:49.248Z,101484.84
2022-10-19T00:21:54.093Z,101488.31
2022-10-19T00:24:58.206Z,101485.50
2022-10-19T00:28:02.551Z,101483.25
2022-10-19T00:31:16.932Z,101477.34
2022-10-19T00:34:20.954Z,101479.22
2022-10-19T00:37:24.652Z,101478.81
2022-10-19T00:40:28.328Z,101482.28
2022-10-19T00:43:32.195Z,101476.78
2022-10-19T00:46:38.927Z,101476.25
2022-10-19T00:49:45.236Z,101472.94
2022-10-19T00:52:49.262Z,101474.25
2022-10-19T00:55:54.043Z,101477.03
2022-10-19T00:58:58.121Z,101468.22
2022-10-19T01:02:04.124Z,101478.91
2022-10-19T01:05:09.202Z,101477.31
2022-10-19T01:08:13.696Z,101467.41
2022-10-19T01:11:33.264Z,101477.56
2022-10-19T01:14:46.272Z,101474.34
2022-10-19T01:18:14.419Z,101471.25
2022-10-19T01:21:28.818Z,101464.69
2022-10-19T01:25:20.302Z,101463.06
2022-10-19T01:28:36.461Z,101470.38
2022-10-19T01:31:55.711Z,101470.63
2022-10-19T01:35:22.753Z,101474.50
2022-10-19T01:38:36.358Z,101460.88
2022-10-19T01:41:51.368Z,101466.75
2022-10-19T01:45:04.273Z,101472.78
2022-10-19T01:48:14.930Z,101463.41
2022-10-19T01:51:23.967Z,101484.53
2022-10-19T01:54:33.965Z,101481.88
2022-10-19T01:57:45.812Z,101478.91
2022-10-19T02:00:53.417Z,101486.28
2022-10-19T02:03:57.988Z,101475.47
2022-10-19T02:07:04.386Z,101476.66
2022-10-19T02:10:08.981Z,101476.34
2022-10-19T02:13:15.638Z,101470.38
2022-10-19T02:16:26.752Z,101477.97
2022-10-19T02:19:31.048Z,101465.63
2022-10-19T02:22:35.496Z,101461.78
2022-10-19T02:25:39.359Z,101464.44
2022-10-19T02:28:44.117Z,101466.28
2022-10-19T02:31:48.174Z,101469.13
2022-10-19T02:34:52.634Z,101463.34
2022-10-19T02:38:00.907Z,101455.06
2022-10-19T02:41:04.967Z,101447.84
2022-10-19T02:44:23.549Z,101452.63
2022-10-19T02:47:36.994Z,101451.53
2022-10-19T02:50:45.303Z,101454.59
2022-10-19T02:53:49.140Z,101459.94
2022-10-19T02:56:53.091Z,101456.03
2022-10-19T02:59:57.494Z,101454.97
2022-10-19T03:03:02.943Z,101463.22
2022-10-19T03:06:06.811Z,101471.19
2022-10-19T03:09:10.447Z,101465.09
2022-10-19T03:12:14.969Z,101473.94
2022-10-19T03:15:19.789Z,101465.19
2022-10-19T03:18:23.834Z,101464.78
2022-10-19T03:21:27.929Z,101462.13
2022-10-19T03:24:32.051Z,101465.69
2022-10-19T03:27:36.418Z,101457.94
2022-10-19T03:30:40.457Z,101481.75
2022-10-19T03:33:44.599Z,101474.69
2022-10-19T03:36:48.489Z,101481.19
2022-10-19T03:39:52.663Z,101472.69
2022-10-19T03:42:56.761Z,101482.13
2022-10-19T03:46:00.678Z,101487.38
2022-10-19T03:49:04.922Z,101476.53
2022-10-19T03:52:09.935Z,101476.78
2022-10-19T03:55:13.549Z,101470.09
2022-10-19T03:58:17.410Z,101465.41
2022-10-19T04:01:24.096Z,101464.19
2022-10-19T04:04:28.453Z,101472.56
2022-10-19T04:07:32.818Z,101474.84
2022-10-19T04:10:36.879Z,101479.38
2022-10-19T04:13:41.010Z,101483.63
2022-10-19T04:16:45.385Z,101491.34
2022-10-19T04:19:49.175Z,101490.28
2022-10-19T04:22:53.398Z,101492.00
2022-10-19T04:26:03.960Z,101486.63
2022-10-19T04:29:08.525Z,101492.09
2022-10-19T04:32:12.370Z,101488.03
2022-10-19T04:35:16.244Z,101491.75
2022-10-19T04:38:20.190Z,101494.28
2022-10-19T04:41:24.572Z,101484.41
2022-10-19T04:44:28.521Z,101486.13
2022-10-19T04:47:32.840Z,101487.84
2022-10-19T04:50:37.096Z,101494.78
2022-10-19T04:53:42.117Z,101481.44
2022-10-19T04:56:46.047Z,101488.78
2022-10-19T04:59:49.953Z,101487.31
2022-10-19T05:02:53.965Z,101486.50
2022-10-19T05:05:59.498Z,101485.81
2022-10-19T05:09:03.933Z,101481.69
2022-10-19T05:12:07.887Z,101490.72
2022-10-19T05:15:11.768Z,101480.81
2022-10-19T05:18:15.674Z,101485.44
2022-10-19T05:21:21.761Z,101487.06
2022-10-19T05:24:25.945Z,101485.19
2022-10-19T05:27:29.605Z,101495.97
2022-10-19T05:30:33.168Z,101493.84
2022-10-19T05:33:38.052Z,101494.97
2022-10-19T05:36:42.183Z,101494.00
2022-10-19T05:39:46.404Z,101487.75
2022-10-19T05:42:50.129Z,101504.03
2022-10-19T05:45:53.921Z,101506.34
2022-10-19T05:48:59.483Z,101507.16
2022-10-19T05:52:03.993Z,101506.84
2022-10-19T05:55:08.643Z,101509.63
2022-10-19T05:58:12.537Z,101506.56
2022-10-19T06:01:18.916Z,101516.03
2022-10-19T06:04:23.053Z,101511.66
2022-10-19T06:07:27.363Z,101518.03
2022-10-19T06:10:31.318Z,101513.88
2022-10-19T06:13:36.014Z,101521.09
2022-10-19T06:16:40.060Z,101530.22
2022-10-19T06:19:44.062Z,101526.06
2022-10-19T06:22:47.992Z,101534.34
2022-10-19T06:25:52.157Z,101536.50
2022-10-19T06:29:00.237Z,101542.25
2022-10-19T06:32:04.540Z,101539.91
2022-10-19T06:35:08.696Z,101546.38
2022-10-19T06:38:13.803Z,101543.69
2022-10-19T06:41:17.861Z,101542.38
2022-10-19T06:44:22.470Z,101547.19
2022-10-19T06:47:31.284Z,101550.41
2022-10-19T06:50:35.501Z,101545.09
2022-10-19T06:53:39.267Z,101546.97
2022-10-19T06:56:43.236Z,101555.25
2022-10-19T06:59:50.120Z,101555.81
2022-10-19T07:02:58.522Z,101554.09
2022-10-19T07:06:06.055Z,101558.59
2022-10-19T07:09:10.193Z,101563.69
2022-10-19T07:12:14.525Z,101567.66
2022-10-19T07:15:19.884Z,101571.81
2022-10-19T07:18:24.361Z,101569.03
2022-10-19T07:21:28.219Z,101573.59
2022-10-19T07:24:32.097Z,101569.22
2022-10-19T07:27:37.839Z,101576.19
2022-10-19T07:30:41.902Z,101577.50
2022-10-19T07:33:45.715Z,101589.56
2022-10-19T07:36:49.911Z,101583.31
2022-10-19T07:39:54.143Z,101584.75
2022-10-19T07:42:57.867Z,101594.91
2022-10-19T07:46:04.647Z,101594.13
2022-10-19T07:49:12.031Z,101591.47
2022-10-19T07:52:16.194Z,101591.75
2022-10-19T07:55:19.992Z,101583.47
2022-10-19T07:58:24.271Z,101588.31
2022-10-19T08:01:30.705Z,101597.66
2022-10-19T08:07:59.090Z,101592.22
2022-10-19T08:11:16.248Z,101604.00
2022-10-19T08:14:20.191Z,101604.00
2022-10-19T08:17:24.083Z,101605.44
2022-10-19T08:20:28.204Z,101606.38
2022-10-19T08:23:32.040Z,101595.13
2022-10-19T08:26:38.213Z,101599.56
2022-10-19T08:29:42.321Z,101599.19
2022-10-19T08:32:46.549Z,101602.78
2022-10-19T08:35:50.858Z,101600.94
2022-10-19T08:38:55.076Z,101602.41
2022-10-19T08:42:14.282Z,101593.44
2022-10-19T08:45:46.957Z,101600.53
2022-10-19T08:48:52.102Z,101591.03
2022-10-19T08:52:00.696Z,101593.97
2022-10-19T08:55:15.249Z,101588.28
2022-10-19T08:59:01.385Z,101579.97
2022-10-19T09:02:16.285Z,101589.16
2022-10-19T09:05:28.770Z,101590.59
2022-10-19T09:08:36.631Z,101592.25
2022-10-19T09:11:44.493Z,101586.34
2022-10-19T09:14:59.291Z,101593.81
2022-10-19T09:18:03.843Z,101599.22
2022-10-19T09:21:15.628Z,101604.78
2022-10-19T09:24:25.894Z,101595.16
2022-10-19T09:27:39.397Z,101593.97
2022-10-19T09:30:44.652Z,101598.63
2022-10-19T09:33:53.166Z,101596.16
2022-10-19T09:36:58.491Z,101593.00
2022-10-19T09:40:02.764Z,101593.16
2022-10-19T09:43:33.883Z,101599.06
2022-10-19T09:46:57.025Z,101599.84
2022-10-19T09:50:18.210Z,101600.88
2022-10-19T09:53:22.756Z,101589.34
2022-10-19T09:56:27.837Z,101591.78
2022-10-19T09:59:36.587Z,101596.75
2022-10-19T10:02:48.352Z,101599.06
2022-10-19T10:05:53.694Z,101593.78
2022-10-19T10:08:58.819Z,101600.94
2022-10-19T10:12:04.491Z,101599.06
2022-10-19T10:15:09.038Z,101600.34
2022-10-19T10:18:15.437Z,101607.16
2022-10-19T10:21:25.697Z,101595.09
2022-10-19T10:24:32.636Z,101586.16
2022-10-19T10:27:40.491Z,101594.78
2022-10-19T10:30:46.727Z,101599.53
2022-10-19T10:34:06.330Z,101600.91
2022-10-19T10:37:34.860Z,101602.88
2022-10-19T10:40:39.799Z,101596.94
2022-10-19T10:44:22.009Z,101594.78
2022-10-19T10:47:27.078Z,101596.19
2022-10-19T10:50:36.453Z,101595.34
2022-10-19T10:53:43.339Z,101594.94
2022-10-19T10:57:13.161Z,101606.38
2022-10-19T11:00:23.952Z,101590.34
2022-10-19T11:03:29.148Z,101600.81
2022-10-19T11:06:42.310Z,101590.41
2022-10-19T11:09:57.315Z,101588.41
2022-10-19T11:13:23.483Z,101588.53
2022-10-19T11:16:49.986Z,101589.50
2022-10-19T11:19:54.522Z,101584.34
2022-10-19T11:23:09.097Z,101586.44
2022-10-19T11:26:24.212Z,101575.13
2022-10-19T11:29:44.611Z,101573.63
2022-10-19T11:32:57.536Z,101580.84
2022-10-19T11:36:15.574Z,101568.22
2022-10-19T11:39:44.989Z,101566.28
2022-10-19T11:43:04.793Z,101566.25
2022-10-19T11:46:29.016Z,101560.69
2022-10-19T11:49:59.686Z,101560.78
2022-10-19T11:53:22.671Z,101559.13
2022-10-19T11:57:02.556Z,101558.06
2022-10-19T12:00:15.380Z,101556.47
2022-10-19T12:03:52.880Z,101556.06
2022-10-19T12:07:13.783Z,101542.75
2022-10-19T12:10:20.965Z,101541.88
2022-10-19T12:13:47.262Z,101539.13
2022-10-19T12:16:56.539Z,101526.94
2022-10-19T12:20:17.433Z,101531.28
2022-10-19T12:23:46.617Z,101526.31
2022-10-19T12:26:53.069Z,101530.81
2022-10-19T12:30:04.398Z,101529.06
2022-10-19T12:33:31.528Z,101534.66
2022-10-19T12:36:56.966Z,101530.16
2022-10-19T12:40:09.272Z,101526.34
2022-10-19T12:43:20.061Z,101527.69
2022-10-19T12:46:51.282Z,101526.34
2022-10-19T12:49:58.127Z,101521.13
2022-10-19T12:53:02.273Z,101516.16
2022-10-19T12:56:09.152Z,101522.50
2022-10-19T12:59:22.485Z,101513.56
2022-10-19T13:02:31.019Z,101512.22
2022-10-19T13:05:36.089Z,101494.72
2022-10-19T13:08:57.297Z,101514.63
2022-10-19T13:12:16.245Z,101502.72
2022-10-19T13:15:36.017Z,101505.19
2022-10-19T13:19:12.415Z,101499.03
2022-10-19T13:22:24.553Z,101503.75
2022-10-19T13:25:29.999Z,101501.81
2022-10-19T13:28:34.435Z,101504.22
2022-10-19T13:31:38.183Z,101507.13
2022-10-19T13:34:42.150Z,101511.72
2022-10-19T13:37:48.935Z,101498.03
2022-10-19T13:40:52.977Z,101504.84
2022-10-19T13:44:14.963Z,101500.66
2022-10-19T13:50:49.591Z,101498.88
2022-10-19T13:54:09.565Z,101504.50
2022-10-19T13:57:46.133Z,101503.91
2022-10-19T14:01:07.630Z,101508.84
2022-10-19T14:04:44.871Z,101507.47
2022-10-19T14:08:08.910Z,101497.53
2022-10-19T14:11:21.584Z,101489.94
2022-10-19T14:14:28.007Z,101487.69
2022-10-19T14:17:34.108Z,101483.88
2022-10-19T14:20:39.245Z,101477.59
2022-10-19T14:23:43.468Z,101479.19
2022-10-19T14:26:48.131Z,101475.41
2022-10-19T14:29:54.247Z,101478.31
2022-10-19T14:33:02.306Z,101479.38
2022-10-19T14:36:13.745Z,101478.50
2022-10-19T14:39:29.387Z,101478.91
2022-10-19T14:42:45.346Z,101492.50
2022-10-19T14:46:08.078Z,101478.47
2022-10-19T14:49:12.351Z,101480.25
2022-10-19T14:52:29.333Z,101479.28
2022-10-19T14:55:37.667Z,101483.06
2022-10-19T14:58:50.412Z,101474.22
2022-10-19T15:01:58.390Z,101477.97
2022-10-19T15:05:05.169Z,101485.88
2022-10-19T15:08:17.326Z,101475.81
2022-10-19T15:11:37.740Z,101474.38
2022-10-19T15:14:42.149Z,101471.00
2022-10-19T15:17:55.090Z,101469.69
2022-10-19T15:21:19.588Z,101471.56
2022-10-19T15:24:26.074Z,101466.72
2022-10-19T15:27:34.867Z,101471.06
2022-10-19T15:30:39.031Z,101472.28
2022-10-19T15:34:02.763Z,101465.84
2022-10-19T15:37:18.444Z,101464.88
2022-10-19T15:40:49.450Z,101463.69
2022-10-19T15:43:56.752Z,101460.22
2022-10-19T15:47:16.435Z,101463.88
2022-10-19T15:50:38.647Z,101448.25
2022-10-19T15:53:42.539Z,101443.81
2022-10-19T15:56:50.972Z,101451.84
2022-10-19T15:59:56.921Z,101451.41
2022-10-19T16:03:00.908Z,101449.53
2022-10-19T16:06:05.323Z,101449.94
2022-10-19T16:09:17.048Z,101461.34
2022-10-19T16:12:22.831Z,101461.22
2022-10-19T16:15:26.894Z,101459.09
2022-10-19T16:18:30.802Z,101455.22
2022-10-19T16:21:36.189Z,101455.50
2022-10-19T16:24:40.829Z,101457.00
2022-10-19T16:27:44.741Z,101449.75
2022-10-19T16:30:52.718Z,101456.47
2022-10-19T16:33:56.803Z,101462.50
2022-10-19T16:37:04.118Z,101462.13
2022-10-19T16:40:10.897Z,101456.88
2022-10-19T16:43:14.765Z,101459.16
2022-10-19T16:46:21.801Z,101459.16
2022-10-19T16:49:26.173Z,101458.88
2022-10-19T16:52:34.277Z,101458.50
2022-10-19T16:55:40.495Z,101460.47
2022-10-19T16:58:44.766Z,101451.56
2022-10-19T17:01:48.667Z,101459.16
2022-10-19T17:04:53.089Z,101451.41
2022-10-19T17:07:57.118Z,101453.41
2022-10-19T17:11:19.165Z,101454.91
2022-10-19T17:14:23.441Z,101452.63
2022-10-19T17:17:27.376Z,101454.06
2022-10-19T17:20:34.644Z,101452.34
2022-10-19T17:23:39.328Z,101461.94
2022-10-19T17:26:47.302Z,101452.97
2022-10-19T17:29:51.088Z,101460.22
2022-10-19T17:32:55.077Z,101450.06
2022-10-19T17:36:14.661Z,101455.38
2022-10-19T17:39:25.594Z,101456.03
2022-10-19T17:42:36.480Z,101461.09
2022-10-19T17:45:40.731Z,101455.31
2022-10-19T17:48:46.474Z,101457.44
2022-10-19T17:51:52.190Z,101455.41
2022-10-19T17:55:12.477Z,101452.88
2022-10-19T17:58:16.715Z,101450.09
2022-10-19T18:01:21.609Z,101455.53
2022-10-19T18:04:25.653Z,101463.44
2022-10-19T18:07:29.454Z,101465.19
2022-10-19T18:10:35.443Z,101463.44
2022-10-19T18:13:40.248Z,101457.13
2022-10-19T18:16:46.230Z,101454.88
2022-10-19T18:19:50.280Z,101454.41
2022-10-19T18:22:54.395Z,101454.41
2022-10-19T18:26:03.195Z,101454.00
2022-10-19T18:29:15.539Z,101458.66
2022-10-19T18:32:19.304Z,101455.69
2022-10-19T18:35:23.430Z,101452.84
2022-10-19T18:38:27.713Z,101458.03
2022-10-19T18:41:32.006Z,101452.19
2022-10-19T18:44:36.126Z,101451.75
2022-10-19T18:47:40.166Z,101444.66
2022-10-19T18:50:44.328Z,101440.09
2022-10-19T18:53:48.566Z,101442.78
2022-10-19T18:56:52.739Z,101437.84
2022-10-19T18:59:56.871Z,101435.56
2022-10-19T19:03:00.980Z,101433.78
2022-10-19T19:06:09.408Z,101427.34
2022-10-19T19:09:13.401Z,101435.44
2022-10-19T19:12:17.489Z,101425.00
2022-10-19T19:15:21.780Z,101425.22
2022-10-19T19:18:26.299Z,101420.44
2022-10-19T19:21:31.628Z,101427.84
2022-10-19T19:24:36.274Z,101428.06
2022-10-19T19:27:40.307Z,101432.72
2022-10-19T19:30:45.520Z,101437.09
2022-10-19T19:33:49.357Z,101438.41
2022-10-19T19:36:53.464Z,101447.13
2022-10-19T19:39:57.534Z,101440.84
2022-10-19T19:43:01.718Z,101437.75
2022-10-19T19:46:12.552Z,101451.34
2022-10-19T19:49:16.781Z,101443.06
2022-10-19T19:52:20.856Z,101446.06
2022-10-19T19:55:25.371Z,101438.03
2022-10-19T19:58:29.531Z,101443.22
2022-10-19T20:01:33.621Z,101445.75
2022-10-19T20:04:37.680Z,101442.28
2022-10-19T20:07:41.301Z,101444.38
2022-10-19T20:10:44.994Z,101448.84
2022-10-19T20:13:49.251Z,101446.44
2022-10-19T20:16:53.291Z,101447.53
2022-10-19T20:19:57.306Z,101441.88
2022-10-19T20:23:01.023Z,101441.28
2022-10-19T20:26:05.630Z,101438.31
2022-10-19T20:29:10.047Z,101431.66
2022-10-19T20:32:14.271Z,101439.25
2022-10-19T20:35:18.249Z,101439.03
2022-10-19T20:38:21.999Z,101428.91
2022-10-19T20:41:27.673Z,101433.72
2022-10-19T20:44:31.767Z,101420.38
2022-10-19T20:47:35.481Z,101421.78
2022-10-19T20:50:40.413Z,101426.84
2022-10-19T20:53:47.347Z,101419.59
2022-10-19T20:56:51.818Z,101422.38
2022-10-19T20:59:55.702Z,101421.78
2022-10-19T21:02:59.670Z,101415.78
2022-10-19T21:06:05.782Z,101410.75
2022-10-19T21:09:10.756Z,101406.16
2022-10-19T21:12:14.734Z,101404.91
2022-10-19T21:15:18.577Z,101394.19
2022-10-19T21:18:23.062Z,101395.00
2022-10-19T21:21:29.389Z,101384.06
2022-10-19T21:24:35.951Z,101379.91
2022-10-19T21:27:40.056Z,101376.28
2022-10-19T21:30:43.834Z,101375.56
2022-10-19T21:33:48.032Z,101373.75
2022-10-19T21:36:52.553Z,101362.03
2022-10-19T21:39:56.497Z,101359.81
2022-10-19T21:43:00.625Z,101365.94
2022-10-19T21:46:05.923Z,101370.06
2022-10-19T21:49:12.181Z,101364.34
2022-10-19T21:52:16.302Z,101365.22
2022-10-19T21:55:20.518Z,101359.59
2022-10-19T21:58:24.482Z,101361.69
2022-10-19T22:01:30.276Z,101359.81
2022-10-19T22:04:34.097Z,101361.81
2022-10-19T22:07:38.398Z,101358.09
2022-10-19T22:10:42.644Z,101364.06
2022-10-19T22:13:46.648Z,101360.88
2022-10-19T22:16:50.732Z,101358.34
2022-10-19T22:19:54.530Z,101350.06
2022-10-19T22:22:58.679Z,101349.28
2022-10-19T22:26:02.579Z,101354.63
2022-10-19T22:29:07.735Z,101356.63
2022-10-19T22:32:11.360Z,101349.25
2022-10-19T22:35:15.098Z,101340.28
2022-10-19T22:38:19.215Z,101335.22
2022-10-19T22:41:23.108Z,101336.97
2022-10-19T22:44:26.728Z,101337.19
2022-10-19T22:47:30.465Z,101329.97
2022-10-19T22:50:34.392Z,101330.31
2022-10-19T22:53:38.478Z,101324.56
2022-10-19T22:56:43.013Z,101324.91
2022-10-19T22:59:46.896Z,101323.22
2022-10-19T23:02:50.985Z,101323.63
2022-10-19T23:05:55.253Z,101315.94
2022-10-19T23:08:59.537Z,101312.84
2022-10-19T23:12:03.664Z,101313.75
2022-10-19T23:15:08.546Z,101314.31
2022-10-19T23:18:13.007Z,101306.19
2022-10-19T23:21:16.877Z,101300.66
2022-10-19T23:24:20.875Z,101299.38
2022-10-19T23:27:24.910Z,101289.63
2022-10-19T23:30:28.878Z,101277.78
2022-10-19T23:33:33.489Z,101284.09
2022-10-19T23:36:37.877Z,101285.94
2022-10-19T23:39:41.947Z,101288.47
2022-10-19T23:42:45.851Z,101286.25
2022-10-19T23:45:50.154Z,101282.19
2022-10-19T23:48:54.281Z,101287.72
2022-10-19T23:51:58.267Z,101290.13
2022-10-19T23:55:02.145Z,101288.53
2022-10-19T23:58:05.815Z,101292.16
